This is the latest recevied weather packets stored in our database for station/object EA5FOG-11. If no packets are shown the sender has not sent any weather packets the latest 10 day(s).
| Time | Temp. | Humidity | Pressure | Rain* | Wind** | Luminosity | Snow |
|---|---|---|---|---|---|---|---|
| 1777487620 | 18.89° C | 53% | 953.8 hPa | - | - | - | - |
| 1777486719 | 19.44° C | 52% | 953.6 hPa | - | - | - | - |
| 1777485818 | 20° C | 51% | 953.4 hPa | - | - | - | - |
| 1777484917 | 21.11° C | 49% | 952.9 hPa | - | - | - | - |
| 1777484016 | 22.78° C | 47% | 953 hPa | - | - | - | - |
| 1777482232 | 27.22° C | 42% | 952.3 hPa | - | - | - | - |
| 1777481331 | 28.33° C | 41% | 952.3 hPa | - | - | - | - |
| 1777480430 | 29.44° C | 40% | 952.1 hPa | - | - | - | - |
| 1777479529 | 30° C | 40% | 952.1 hPa | - | - | - | - |
| 1777478629 | 31.67° C | 39% | 952.3 hPa | - | - | - | - |
| 1777477728 | 32.22° C | 39% | 952.2 hPa | - | - | - | - |
| 1777476827 | 32.78° C | 38% | 952 hPa | - | - | - | - |
| 1777475926 | 32.78° C | 39% | 951.9 hPa | - | - | - | - |
| 1777475025 | 32.78° C | 39% | 952 hPa | - | - | - | - |
| 1777474124 | 31.67° C | 40% | 951.7 hPa | - | - | - | - |
| 1777473224 | 31.11° C | 41% | 952 hPa | - | - | - | - |
| 1777472323 | 28.89° C | 43% | 952.2 hPa | - | - | - | - |
| 1777471422 | 27.78° C | 44% | 952.3 hPa | - | - | - | - |
| 1777470521 | 27.78° C | 44% | 952.3 hPa | - | - | - | - |
| 1777469620 | 28.89° C | 43% | 952.5 hPa | - | - | - | - |
| 1777468720 | 30° C | 43% | 952.4 hPa | - | - | - | - |
| 1777467819 | 30.56° C | 43% | 952.4 hPa | - | - | - | - |
| 1777466918 | 28.89° C | 45% | 952.5 hPa | - | - | - | - |
| 1777466017 | 29.44° C | 44% | 952.6 hPa | - | - | - | - |
| 1777465117 | 28.89° C | 46% | 952.7 hPa | - | - | - | - |
* Rain since midnight (hover to see other rain measurements)
** Current wind speed in m/s (hover to see current wind gust speed)